Time;durP1;ratioP1;P1;durP2;ratioP2;P2;SDS_P1;SDS_P2;PMS_P1;PMS_P2;Temp;Humidity;BMP_temperature;BMP_pressure;BME280_temperature;BME280_humidity;BME280_pressure;Samples;Min_cycle;Max_cycle;Signal;HPM_P1;HPM_P2
2023/01/08 00:01:18;;;;;;;0.00;0.00;;;5.20;99.90;;;;;;5017033;28;20446;-75
2023/01/08 00:03:45;;;;;;;0.03;0.03;;;5.20;99.90;;;;;;5025494;28;20696;-74
2023/01/08 00:06:15;;;;;;;0.10;0.10;;;5.30;99.90;;;;;;5015284;28;20889;-75
2023/01/08 00:08:42;;;;;;;0.00;0.00;;;5.30;99.90;;;;;;5023576;28;20025;-74
2023/01/08 00:11:09;;;;;;;0.00;0.00;;;5.20;99.90;;;;;;5027878;28;20123;-74
2023/01/08 00:13:41;;;;;;;;;;;5.20;99.90;;;;;;5024626;28;20425;-75
2023/01/08 00:16:13;;;;;;;0.03;0.03;;;5.20;99.90;;;;;;5021086;28;19913;-75
2023/01/08 00:18:44;;;;;;;0.00;0.00;;;5.20;99.90;;;;;;5025402;28;20045;-75
2023/01/08 00:21:12;;;;;;;0.00;0.00;;;5.20;99.90;;;;;;5012495;28;20064;-74
2023/01/08 00:23:43;;;;;;;0.00;0.00;;;5.10;99.90;;;;;;5027745;28;20220;-75
2023/01/08 00:26:11;;;;;;;0.10;0.10;;;5.20;99.90;;;;;;5014068;28;20033;-74
2023/01/08 00:28:38;;;;;;;0.00;0.00;;;5.20;99.90;;;;;;5021975;28;20032;-74
2023/01/08 00:31:12;;;;;;;0.00;0.00;;;5.10;99.90;;;;;;5020582;28;20614;-74
2023/01/08 00:33:40;;;;;;;0.00;0.00;;;5.10;99.90;;;;;;5020435;28;20164;-74
2023/01/08 00:36:13;;;;;;;0.00;0.00;;;5.10;99.90;;;;;;5016448;28;20029;-75
2023/01/08 00:38:43;;;;;;;0.00;0.00;;;5.10;99.90;;;;;;5022919;28;20035;-74
2023/01/08 00:41:12;;;;;;;0.00;0.00;;;5.10;99.90;;;;;;5017046;28;20053;-75
2023/01/08 00:43:37;;;;;;;0.00;0.00;;;5.10;99.90;;;;;;5024361;28;20111;-74
2023/01/08 00:46:05;;;;;;;0.00;0.00;;;5.10;99.90;;;;;;5020623;28;20554;-75
2023/01/08 00:48:37;;;;;;;0.10;0.10;;;5.10;99.90;;;;;;5018611;28;20050;-74
2023/01/08 00:51:04;;;;;;;0.00;0.00;;;5.10;99.90;;;;;;5019059;28;20028;-75
2023/01/08 00:53:31;;;;;;;;;;;5.10;99.90;;;;;;5018930;28;20025;-74
2023/01/08 00:56:06;;;;;;;0.00;0.00;;;5.20;99.90;;;;;;5017271;28;19924;-74
2023/01/08 00:58:33;;;;;;;0.00;0.00;;;5.20;99.90;;;;;;5015623;28;20049;-75
2023/01/08 01:00:59;;;;;;;;;;;5.20;99.90;;;;;;5026439;28;20045;-74
2023/01/08 01:03:25;;;;;;;0.00;0.00;;;5.30;99.90;;;;;;5011226;28;20837;-74
2023/01/08 01:06:12;;;;;;;0.63;0.15;;;5.20;99.90;;;;;;5020362;28;20030;-74
2023/01/08 01:08:38;;;;;;;0.00;0.00;;;5.20;99.90;;;;;;5024592;28;20115;-74
2023/01/08 01:11:16;;;;;;;0.00;0.00;;;5.00;99.90;;;;;;5018838;28;20582;-74
2023/01/08 01:13:49;;;;;;;0.00;0.00;;;5.00;99.90;;;;;;5021572;28;20049;-74
2023/01/08 01:16:15;;;;;;;0.00;0.00;;;5.00;99.90;;;;;;5018603;28;20049;-74
2023/01/08 01:18:42;;;;;;;0.00;0.00;;;4.90;99.90;;;;;;5017761;28;20471;-75
2023/01/08 01:21:28;;;;;;;;;;;4.90;99.90;;;;;;5023424;28;20029;-74
2023/01/08 01:23:57;;;;;;;0.57;0.57;;;5.00;99.90;;;;;;5026720;28;19958;-74
2023/01/08 01:26:25;;;;;;;0.00;0.00;;;5.10;99.90;;;;;;5020320;28;20016;-74
2023/01/08 01:28:54;;;;;;;0.00;0.00;;;5.10;99.90;;;;;;5035741;28;20024;-74
2023/01/08 01:31:21;;;;;;;0.00;0.00;;;5.10;99.90;;;;;;5023167;28;20017;-74
2023/01/08 01:33:47;;;;;;;4.45;0.63;;;5.00;99.90;;;;;;5015111;28;20041;-74
2023/01/08 01:36:18;;;;;;;0.00;0.00;;;5.10;99.90;;;;;;5025684;28;20116;-74
2023/01/08 01:38:47;;;;;;;0.10;0.10;;;5.00;99.90;;;;;;5025368;28;20024;-74
2023/01/08 01:41:43;;;;;;;0.00;0.00;;;4.90;99.90;;;;;;5021630;28;20059;-74
2023/01/08 01:44:37;;;;;;;0.00;0.00;;;4.90;99.90;;;;;;5023733;28;20025;-74
2023/01/08 01:47:24;;;;;;;0.13;0.13;;;4.80;99.90;;;;;;5034493;28;20056;-75
2023/01/08 01:50:28;;;;;;;0.00;0.00;;;4.90;99.90;;;;;;5019533;28;20029;-74
2023/01/08 01:53:09;;;;;;;0.03;0.03;;;4.90;99.90;;;;;;5021716;28;20037;-74
2023/01/08 01:55:38;;;;;;;0.00;0.00;;;5.00;99.90;;;;;;5023570;28;20052;-73
2023/01/08 01:58:36;;;;;;;1.40;0.30;;;5.00;99.90;;;;;;5024262;28;20022;-74
2023/01/08 02:01:03;;;;;;;;;;;4.90;99.90;;;;;;4980212;28;20785;-74
2023/01/08 02:03:33;;;;;;;0.00;0.00;;;5.00;99.90;;;;;;5037500;28;19905;-75
2023/01/08 02:06:29;;;;;;;0.00;0.00;;;4.90;99.90;;;;;;5022535;28;20478;-74
2023/01/08 02:09:40;;;;;;;0.00;0.00;;;5.00;99.90;;;;;;5024376;28;20055;-75
2023/01/08 02:12:29;;;;;;;0.00;0.00;;;4.90;99.90;;;;;;5018777;28;20051;-75
2023/01/08 02:15:22;;;;;;;0.00;0.00;;;5.00;99.90;;;;;;5029319;28;20432;-74
2023/01/08 02:18:10;;;;;;;0.00;0.00;;;4.90;99.90;;;;;;5035438;28;20030;-74
2023/01/08 02:20:44;;;;;;;0.00;0.00;;;4.90;99.90;;;;;;5016565;28;20018;-74
2023/01/08 02:23:50;;;;;;;0.00;0.00;;;5.00;99.90;;;;;;5029777;28;20025;-75
2023/01/08 02:26:34;;;;;;;0.00;0.00;;;4.90;99.90;;;;;;5004440;28;20049;-74
2023/01/08 02:29:08;;;;;;;0.00;0.00;;;4.90;99.90;;;;;;5017812;28;20038;-74
2023/01/08 02:31:37;;;;;;;0.10;0.10;;;4.90;99.90;;;;;;5019767;28;20116;-74
2023/01/08 02:34:04;;;;;;;0.00;0.00;;;4.90;99.90;;;;;;5023707;28;20366;-74
2023/01/08 02:36:49;;;;;;;0.13;0.13;;;4.90;99.90;;;;;;5018077;28;20043;-75
2023/01/08 02:39:39;;;;;;;0.22;0.22;;;4.80;99.90;;;;;;5024585;28;20021;-74
2023/01/08 02:42:14;;;;;;;0.20;0.20;;;4.80;99.90;;;;;;5036473;28;20028;-74
2023/01/08 02:44:59;;;;;;;0.00;0.00;;;4.90;99.90;;;;;;5019354;28;20819;-74
2023/01/08 02:47:33;;;;;;;0.10;0.10;;;4.80;99.90;;;;;;5042371;28;20029;-74
2023/01/08 02:50:02;;;;;;;0.00;0.00;;;4.70;99.90;;;;;;5020769;28;20036;-74
2023/01/08 02:52:32;;;;;;;1.55;1.45;;;4.60;99.90;;;;;;5020332;28;20022;-74
2023/01/08 02:55:01;;;;;;;0.15;0.15;;;4.60;99.90;;;;;;5031775;28;20039;-74
2023/01/08 02:57:32;;;;;;;3.13;0.60;;;4.60;99.90;;;;;;5024346;28;20041;-74
2023/01/08 02:59:58;;;;;;;0.08;0.08;;;4.60;99.90;;;;;;5016486;28;20022;-74
2023/01/08 03:02:29;;;;;;;;;;;4.70;99.90;;;;;;5023113;28;20034;-75
2023/01/08 03:05:02;;;;;;;0.00;0.00;;;4.70;99.90;;;;;;5039088;28;20012;-74
2023/01/08 03:07:28;;;;;;;0.00;0.00;;;4.70;99.90;;;;;;5019166;28;20021;-75
2023/01/08 03:09:54;;;;;;;0.00;0.00;;;4.70;99.90;;;;;;5018409;28;20035;-74
2023/01/08 03:12:42;;;;;;;0.30;0.30;;;4.70;99.90;;;;;;5024613;28;20612;-75
2023/01/08 03:15:11;;;;;;;0.00;0.00;;;4.70;99.90;;;;;;5024027;28;20517;-74
2023/01/08 03:17:42;;;;;;;0.00;0.00;;;4.80;99.90;;;;;;5020735;28;20041;-75
2023/01/08 03:20:17;;;;;;;0.00;0.00;;;4.80;99.90;;;;;;5026470;28;20017;-75
2023/01/08 03:22:54;;;;;;;0.00;0.00;;;4.80;99.90;;;;;;5023369;28;20022;-75
2023/01/08 03:25:23;;;;;;;0.00;0.00;;;4.80;99.90;;;;;;5018951;28;20535;-75
2023/01/08 03:27:56;;;;;;;0.00;0.00;;;4.80;99.90;;;;;;5030179;28;20227;-74
2023/01/08 03:30:23;;;;;;;0.00;0.00;;;4.70;99.90;;;;;;5042378;28;20024;-75
2023/01/08 03:32:50;;;;;;;0.00;0.00;;;4.70;99.90;;;;;;5022351;28;20124;-74
2023/01/08 03:35:20;;;;;;;0.00;0.00;;;4.70;99.90;;;;;;5018193;28;20207;-74
2023/01/08 03:37:55;;;;;;;3.50;0.45;;;4.70;99.90;;;;;;5022759;28;20532;-74
2023/01/08 03:40:26;;;;;;;0.00;0.00;;;4.70;99.90;;;;;;5016508;28;20025;-74
2023/01/08 03:42:56;;;;;;;0.00;0.00;;;4.60;99.90;;;;;;5032562;28;20048;-78
2023/01/08 03:45:24;;;;;;;0.00;0.00;;;4.60;99.90;;;;;;5026603;28;20173;-74
2023/01/08 03:47:53;;;;;;;0.00;0.00;;;4.60;99.90;;;;;;5015653;28;20025;-75
2023/01/08 03:50:26;;;;;;;0.00;0.00;;;4.60;99.90;;;;;;5020431;28;20018;-75
2023/01/08 03:52:55;;;;;;;0.38;0.38;;;4.60;99.90;;;;;;5014901;28;20988;-74
2023/01/08 03:55:23;;;;;;;0.00;0.00;;;4.60;99.90;;;;;;5020488;28;20025;-74
2023/01/08 03:57:51;;;;;;;0.25;0.25;;;4.60;99.90;;;;;;5015577;28;20060;-74
2023/01/08 04:00:20;;;;;;;0.00;0.00;;;4.60;99.90;;;;;;5026138;28;20043;-74
2023/01/08 04:02:52;;;;;;;0.32;0.20;;;4.50;99.90;;;;;;5041534;28;20084;-74
2023/01/08 04:05:19;;;;;;;0.00;0.00;;;4.40;99.90;;;;;;5023195;28;20031;-74
2023/01/08 04:07:45;;;;;;;0.68;0.68;;;4.40;99.90;;;;;;5018846;28;20035;-74
2023/01/08 04:10:11;;;;;;;0.47;0.47;;;4.40;99.90;;;;;;5027301;28;20030;-74
2023/01/08 04:12:41;;;;;;;0.00;0.00;;;4.40;99.90;;;;;;5016976;28;20743;-74
2023/01/08 04:15:08;;;;;;;0.15;0.10;;;4.30;99.90;;;;;;5017678;28;20756;-75
2023/01/08 04:17:34;;;;;;;0.00;0.00;;;4.20;99.90;;;;;;5019215;28;20451;-74
2023/01/08 04:20:00;;;;;;;0.03;0.03;;;4.20;99.90;;;;;;5019845;28;20049;-74
2023/01/08 04:22:32;;;;;;;0.53;0.53;;;4.30;99.90;;;;;;5019969;28;20025;-75
2023/01/08 04:25:03;;;;;;;0.28;0.28;;;4.20;99.90;;;;;;5031863;28;20343;-74
2023/01/08 04:27:35;;;;;;;0.00;0.00;;;4.20;99.90;;;;;;5021009;28;20021;-74
2023/01/08 04:30:02;;;;;;;0.28;0.10;;;4.20;99.90;;;;;;5043077;28;20027;-74
2023/01/08 04:32:29;;;;;;;0.00;0.00;;;4.20;99.90;;;;;;5020513;28;20026;-75
2023/01/08 04:34:58;;;;;;;0.20;0.20;;;4.20;99.90;;;;;;5022934;28;20129;-74
2023/01/08 04:37:28;;;;;;;0.00;0.00;;;4.30;99.90;;;;;;5015126;28;20032;-76
2023/01/08 04:40:00;;;;;;;0.00;0.00;;;4.20;99.90;;;;;;5025779;28;20374;-74
2023/01/08 04:42:25;;;;;;;0.75;0.50;;;4.30;99.90;;;;;;5017698;28;20790;-74
2023/01/08 04:44:55;;;;;;;5.63;0.53;;;4.30;99.90;;;;;;5021281;28;20041;-74
2023/01/08 04:47:21;;;;;;;0.75;0.75;;;4.30;99.90;;;;;;5016491;28;20032;-74
2023/01/08 04:49:46;;;;;;;0.00;0.00;;;4.30;99.90;;;;;;5034686;28;20382;-74
2023/01/08 04:52:14;;;;;;;1.10;0.57;;;4.30;99.90;;;;;;5015828;28;20026;-74
2023/01/08 04:54:45;;;;;;;0.00;0.00;;;4.30;99.90;;;;;;5026259;28;20072;-74
2023/01/08 04:57:13;;;;;;;0.20;0.20;;;4.30;99.90;;;;;;5015872;28;20034;-75
2023/01/08 04:59:41;;;;;;;0.00;0.00;;;4.30;99.90;;;;;;5019797;28;20116;-74
2023/01/08 05:02:07;;;;;;;0.00;0.00;;;4.20;99.90;;;;;;5012854;28;20099;-75
2023/01/08 05:04:33;;;;;;;0.05;0.05;;;4.10;99.90;;;;;;5020905;28;20021;-74
2023/01/08 05:06:59;;;;;;;0.00;0.00;;;4.10;99.90;;;;;;5015070;28;20022;-74
2023/01/08 05:09:24;;;;;;;0.00;0.00;;;4.10;99.90;;;;;;5025232;28;20470;-74
2023/01/08 05:11:52;;;;;;;0.00;0.00;;;4.10;99.90;;;;;;5020253;28;20375;-75
2023/01/08 05:14:18;;;;;;;0.63;0.38;;;4.20;99.90;;;;;;5016781;28;20047;-75
2023/01/08 05:16:44;;;;;;;0.00;0.00;;;4.20;99.90;;;;;;5021686;28;20668;-74
2023/01/08 05:19:11;;;;;;;;;;;4.20;99.90;;;;;;5018345;28;21550;-74
2023/01/08 05:21:42;;;;;;;0.10;0.10;;;4.20;99.90;;;;;;5020806;28;20796;-74
2023/01/08 05:24:09;;;;;;;0.28;0.28;;;4.20;99.90;;;;;;5023539;28;20103;-75
2023/01/08 05:26:35;;;;;;;;;;;4.20;99.90;;;;;;5016563;28;20017;-74
2023/01/08 05:29:06;;;;;;;0.00;0.00;;;4.20;99.90;;;;;;5022267;28;19905;-74
2023/01/08 05:31:33;;;;;;;0.00;0.00;;;4.20;99.90;;;;;;5021928;28;20199;-74
2023/01/08 05:33:59;;;;;;;0.00;0.00;;;4.20;99.90;;;;;;5019744;28;20034;-74
2023/01/08 05:36:27;;;;;;;0.00;0.00;;;4.20;99.90;;;;;;5012395;28;20025;-74
2023/01/08 05:39:02;;;;;;;0.00;0.00;;;4.20;99.90;;;;;;5021419;28;20032;-74
2023/01/08 05:41:29;;;;;;;0.00;0.00;;;4.20;99.90;;;;;;5028610;28;20041;-74
2023/01/08 05:43:55;;;;;;;;;;;4.20;99.90;;;;;;5017553;28;20025;-74
2023/01/08 05:46:24;;;;;;;0.08;0.08;;;4.10;99.90;;;;;;5014204;28;19905;-74
2023/01/08 05:48:50;;;;;;;0.00;0.00;;;4.20;99.90;;;;;;5016762;28;20025;-74
2023/01/08 05:51:16;;;;;;;0.00;0.00;;;4.20;99.90;;;;;;5015337;28;20029;-74
2023/01/08 05:53:43;;;;;;;0.00;0.00;;;4.30;99.90;;;;;;5029418;28;20628;-74
2023/01/08 05:56:10;;;;;;;0.00;0.00;;;4.10;99.90;;;;;;5022533;28;20022;-75
2023/01/08 05:58:36;;;;;;;0.00;0.00;;;4.10;99.90;;;;;;5020721;28;20050;-73
2023/01/08 06:01:09;;;;;;;0.30;0.30;;;4.10;99.90;;;;;;5033116;28;20053;-74
2023/01/08 06:03:36;;;;;;;0.00;0.00;;;4.20;99.90;;;;;;5014907;28;20036;-74
2023/01/08 06:06:04;;;;;;;0.00;0.00;;;4.20;99.90;;;;;;5016952;28;20467;-74
2023/01/08 06:08:30;;;;;;;0.00;0.00;;;4.10;99.90;;;;;;5014054;28;20041;-74
2023/01/08 06:11:07;;;;;;;0.00;0.00;;;4.10;99.90;;;;;;5027364;28;20021;-74
2023/01/08 06:13:36;;;;;;;0.00;0.00;;;4.00;99.90;;;;;;5014585;28;20032;-74
2023/01/08 06:16:04;;;;;;;0.45;0.35;;;4.10;99.90;;;;;;5019666;28;20021;-74
2023/01/08 06:18:32;;;;;;;0.00;0.00;;;4.00;99.90;;;;;;5019109;28;20030;-74
2023/01/08 06:21:00;;;;;;;0.00;0.00;;;4.00;99.90;;;;;;5021792;28;20022;-74
2023/01/08 06:23:28;;;;;;;0.00;0.00;;;4.00;99.90;;;;;;5027881;28;20424;-74
2023/01/08 06:25:59;;;;;;;0.20;0.20;;;3.90;99.90;;;;;;5034942;28;20789;-74
2023/01/08 06:28:26;;;;;;;0.43;0.43;;;3.90;99.90;;;;;;5042394;28;20461;-74
2023/01/08 06:30:55;;;;;;;0.00;0.00;;;3.90;99.90;;;;;;5020647;28;20120;-74
2023/01/08 06:33:22;;;;;;;0.00;0.00;;;3.80;99.90;;;;;;5018365;28;21001;-74
2023/01/08 06:36:03;;;;;;;0.00;0.00;;;3.70;99.90;;;;;;5024038;28;20734;-74
2023/01/08 06:38:33;;;;;;;0.00;0.00;;;3.80;99.90;;;;;;5021538;28;20030;-74
2023/01/08 06:41:03;;;;;;;0.00;0.00;;;3.90;99.90;;;;;;5022340;28;20528;-73
2023/01/08 06:43:35;;;;;;;0.00;0.00;;;3.90;99.90;;;;;;5022103;28;20929;-74
2023/01/08 06:46:07;;;;;;;0.08;0.08;;;3.90;99.90;;;;;;5026229;28;20025;-74
2023/01/08 06:48:34;;;;;;;0.00;0.00;;;3.90;99.90;;;;;;5015807;28;20021;-74
2023/01/08 06:51:06;;;;;;;0.00;0.00;;;3.90;99.90;;;;;;5015268;28;20021;-74
2023/01/08 06:53:32;;;;;;;0.00;0.00;;;4.00;99.90;;;;;;5029978;28;20021;-75
2023/01/08 06:56:02;;;;;;;0.00;0.00;;;4.00;99.90;;;;;;5018628;28;20022;-74
2023/01/08 06:58:32;;;;;;;0.10;0.10;;;4.00;99.90;;;;;;5019842;28;20160;-75
2023/01/08 07:00:58;;;;;;;0.20;0.20;;;4.10;99.90;;;;;;5018797;28;20025;-74
2023/01/08 07:03:25;;;;;;;0.37;0.37;;;4.10;99.90;;;;;;5032846;28;20021;-74
2023/01/08 07:05:54;;;;;;;0.00;0.00;;;4.00;99.90;;;;;;5018369;28;20025;-75
2023/01/08 07:08:20;;;;;;;0.00;0.00;;;4.10;99.90;;;;;;5013924;28;20029;-74
2023/01/08 07:10:46;;;;;;;0.07;0.07;;;4.00;99.90;;;;;;5020273;28;20064;-75
2023/01/08 07:13:13;;;;;;;0.00;0.00;;;4.00;99.90;;;;;;5041490;28;20025;-74
2023/01/08 07:15:50;;;;;;;;;;;4.00;99.90;;;;;;5023684;28;20079;-75
2023/01/08 07:18:19;;;;;;;0.03;0.03;;;4.00;99.90;;;;;;5018026;28;20011;-75
2023/01/08 07:20:48;;;;;;;0.47;0.47;;;4.00;99.90;;;;;;5030671;28;20053;-75
2023/01/08 07:23:23;;;;;;;0.00;0.00;;;4.00;99.90;;;;;;5018437;28;20021;-75
2023/01/08 07:25:48;;;;;;;0.00;0.00;;;4.00;99.90;;;;;;5023370;28;20049;-75
2023/01/08 07:28:16;;;;;;;0.27;0.27;;;4.00;99.90;;;;;;5023747;28;20056;-75
2023/01/08 07:30:46;;;;;;;0.00;0.00;;;4.00;99.90;;;;;;5029873;28;20029;-74
2023/01/08 07:33:12;;;;;;;0.00;0.00;;;4.10;99.90;;;;;;5018951;28;20042;-73
2023/01/08 07:35:40;;;;;;;0.13;0.13;;;4.00;99.90;;;;;;5019975;28;20623;-74
2023/01/08 07:38:09;;;;;;;0.00;0.00;;;3.90;99.90;;;;;;5023572;28;20033;-74
2023/01/08 07:40:34;;;;;;;0.10;0.10;;;3.90;99.90;;;;;;5023212;28;20015;-73
2023/01/08 07:43:02;;;;;;;0.33;0.33;;;3.90;99.90;;;;;;5015554;28;20021;-73
2023/01/08 07:45:30;;;;;;;0.00;0.00;;;3.80;99.90;;;;;;5017763;28;20099;-73
2023/01/08 07:47:57;;;;;;;0.95;0.47;;;3.80;99.90;;;;;;5019084;28;20466;-73
2023/01/08 07:50:32;;;;;;;1.55;1.45;;;3.90;99.90;;;;;;5027276;28;20033;-73
2023/01/08 07:53:02;;;;;;;0.00;0.00;;;3.80;99.90;;;;;;5012286;28;20675;-73
2023/01/08 07:55:28;;;;;;;0.00;0.00;;;3.80;99.90;;;;;;5021280;28;20029;-73
2023/01/08 07:58:14;;;;;;;0.00;0.00;;;3.80;99.90;;;;;;5023012;28;20028;-73
2023/01/08 08:00:41;;;;;;;0.00;0.00;;;3.90;99.90;;;;;;5017676;28;20415;-73
2023/01/08 08:03:10;;;;;;;;;;;3.90;99.90;;;;;;5026214;28;20112;-73
2023/01/08 08:05:38;;;;;;;0.00;0.00;;;3.90;99.90;;;;;;5017250;28;19948;-73
2023/01/08 08:08:09;;;;;;;5.65;0.55;;;3.80;99.90;;;;;;5022922;28;20611;-73
2023/01/08 08:10:35;;;;;;;2.95;0.38;;;3.80;99.90;;;;;;5018917;28;20022;-73
2023/01/08 08:13:01;;;;;;;1.85;0.43;;;3.80;99.90;;;;;;5018099;28;20559;-73
2023/01/08 08:15:26;;;;;;;0.00;0.00;;;3.80;99.90;;;;;;5016052;28;20026;-73
2023/01/08 08:17:52;;;;;;;0.00;0.00;;;3.80;99.90;;;;;;5018645;28;20440;-73
2023/01/08 08:20:19;;;;;;;0.00;0.00;;;3.80;99.90;;;;;;5025157;28;20017;-73
2023/01/08 08:22:49;;;;;;;0.00;0.00;;;3.80;99.90;;;;;;5018225;28;20021;-73
2023/01/08 08:25:15;;;;;;;0.00;0.00;;;3.80;99.90;;;;;;5014429;28;20026;-73
2023/01/08 08:27:43;;;;;;;0.00;0.00;;;3.80;99.90;;;;;;5020049;28;20094;-73
2023/01/08 08:30:13;;;;;;;0.00;0.00;;;3.90;99.90;;;;;;5014116;28;20034;-73
2023/01/08 08:32:38;;;;;;;0.00;0.00;;;3.80;99.90;;;;;;5023075;28;20094;-73
2023/01/08 08:35:05;;;;;;;0.00;0.00;;;3.80;99.90;;;;;;5016281;28;20747;-73
2023/01/08 08:37:31;;;;;;;0.00;0.00;;;3.90;99.90;;;;;;5021903;28;20087;-74
2023/01/08 08:39:57;;;;;;;;;;;3.80;99.90;;;;;;5022339;28;20022;-73
2023/01/08 08:42:25;;;;;;;0.00;0.00;;;3.90;99.90;;;;;;5009181;28;19916;-73
2023/01/08 08:44:50;;;;;;;0.00;0.00;;;3.90;99.90;;;;;;5018162;28;20060;-73
2023/01/08 08:47:19;;;;;;;0.20;0.20;;;3.90;99.90;;;;;;5014306;28;20025;-73
2023/01/08 08:49:45;;;;;;;0.10;0.10;;;3.90;99.90;;;;;;5019299;28;20026;-73
2023/01/08 08:52:14;;;;;;;0.30;0.30;;;3.90;99.90;;;;;;5020048;28;20072;-73
2023/01/08 08:54:40;;;;;;;0.00;0.00;;;3.90;99.90;;;;;;5015865;28;20024;-73
2023/01/08 08:57:09;;;;;;;0.00;0.00;;;3.90;99.90;;;;;;5016693;28;20017;-73
2023/01/08 08:59:35;;;;;;;0.00;0.00;;;3.90;99.90;;;;;;5014897;28;20037;-73
2023/01/08 09:02:01;;;;;;;;;;;3.90;99.90;;;;;;5022326;28;20024;-73
2023/01/08 09:04:34;;;;;;;0.00;0.00;;;3.90;99.90;;;;;;5023090;28;19905;-73
2023/01/08 09:07:00;;;;;;;0.00;0.00;;;3.90;99.90;;;;;;5046223;28;20035;-73
2023/01/08 09:09:26;;;;;;;0.00;0.00;;;3.90;99.90;;;;;;5021661;28;20036;-73
2023/01/08 09:11:52;;;;;;;0.00;0.00;;;3.90;99.90;;;;;;5019974;28;20108;-73
2023/01/08 09:14:19;;;;;;;0.38;0.38;;;4.00;99.90;;;;;;5023951;28;20087;-73
2023/01/08 09:16:46;;;;;;;0.00;0.00;;;4.00;99.90;;;;;;5013706;28;20067;-73
2023/01/08 09:19:12;;;;;;;;;;;4.00;99.90;;;;;;5019838;28;20039;-73
2023/01/08 09:21:41;;;;;;;0.00;0.00;;;3.90;99.90;;;;;;5026013;28;19909;-73
2023/01/08 09:24:07;;;;;;;0.10;0.10;;;3.90;99.90;;;;;;5017003;28;21072;-73
2023/01/08 09:26:33;;;;;;;0.00;0.00;;;4.00;99.90;;;;;;5021739;28;20021;-73
2023/01/08 09:28:59;;;;;;;0.60;0.60;;;4.00;99.90;;;;;;5021926;28;20032;-73
2023/01/08 09:31:26;;;;;;;0.40;0.40;;;4.00;99.90;;;;;;5021651;28;20029;-73
2023/01/08 09:33:52;;;;;;;0.00;0.00;;;4.00;99.90;;;;;;5012344;28;20781;-73
2023/01/08 09:36:19;;;;;;;0.00;0.00;;;4.10;99.90;;;;;;5016878;28;20045;-73
2023/01/08 09:38:45;;;;;;;0.00;0.00;;;4.10;99.90;;;;;;5012043;28;20425;-73
2023/01/08 09:41:32;;;;;;;0.13;0.13;;;4.00;99.90;;;;;;5017525;28;20017;-74
2023/01/08 09:43:59;;;;;;;0.00;0.00;;;4.10;99.90;;;;;;5019678;28;21136;-73
2023/01/08 09:46:28;;;;;;;0.00;0.00;;;4.10;99.90;;;;;;5019434;28;20048;-74
2023/01/08 09:49:00;;;;;;;0.00;0.00;;;4.10;99.90;;;;;;5019239;28;20047;-73
2023/01/08 09:51:38;;;;;;;0.00;0.00;;;4.20;99.90;;;;;;5021057;28;20060;-73
2023/01/08 09:54:06;;;;;;;;;;;4.30;99.90;;;;;;5018794;28;20017;-70
2023/01/08 09:56:35;;;;;;;;;;;4.20;99.90;;;;;;5015031;28;19932;-71
2023/01/08 09:59:03;;;;;;;0.00;0.00;;;4.20;99.90;;;;;;5019673;28;19924;-71
2023/01/08 10:01:35;;;;;;;0.00;0.00;;;4.30;99.90;;;;;;5021628;28;20009;-71
2023/01/08 10:04:22;;;;;;;4.85;1.88;;;4.30;99.90;;;;;;5019605;28;20017;-73
2023/01/08 10:06:55;;;;;;;0.00;0.00;;;4.30;99.90;;;;;;5020739;28;20017;-72
2023/01/08 10:09:26;;;;;;;0.10;0.10;;;4.20;99.90;;;;;;5023081;28;20836;-73
2023/01/08 10:11:54;;;;;;;0.15;0.15;;;4.20;99.90;;;;;;5022729;28;20017;-73
2023/01/08 10:14:23;;;;;;;0.00;0.00;;;4.30;99.90;;;;;;5017120;28;20470;-73
2023/01/08 10:16:54;;;;;;;1.08;0.15;;;4.20;99.90;;;;;;5022739;28;20033;-73
2023/01/08 10:19:22;;;;;;;0.13;0.13;;;4.20;99.90;;;;;;5021512;28;20371;-72
2023/01/08 10:21:53;;;;;;;0.00;0.00;;;4.20;99.90;;;;;;5016142;28;20755;-73
2023/01/08 10:24:35;;;;;;;0.00;0.00;;;4.20;99.90;;;;;;5021295;28;20116;-73
2023/01/08 10:27:12;;;;;;;0.20;0.20;;;4.30;99.90;;;;;;5019326;28;20535;-73
2023/01/08 10:29:40;;;;;;;0.75;0.52;;;4.30;99.90;;;;;;5019728;28;20528;-74
2023/01/08 10:32:13;;;;;;;0.03;0.03;;;4.40;99.90;;;;;;5021979;28;20022;-73
2023/01/08 10:34:49;;;;;;;0.00;0.00;;;4.40;99.90;;;;;;5022702;28;20033;-73
2023/01/08 10:37:30;;;;;;;0.20;0.20;;;4.50;99.90;;;;;;5022191;28;20053;-73
2023/01/08 10:40:28;;;;;;;0.00;0.00;;;4.50;99.90;;;;;;5022612;28;20028;-73
2023/01/08 10:42:57;;;;;;;0.00;0.00;;;4.50;99.90;;;;;;5021684;28;20036;-73
2023/01/08 10:45:27;;;;;;;0.03;0.03;;;4.50;99.90;;;;;;5019265;28;20053;-73
2023/01/08 10:47:59;;;;;;;0.17;0.17;;;4.60;99.90;;;;;;5029342;28;20371;-73
2023/01/08 10:50:31;;;;;;;0.00;0.00;;;4.60;99.90;;;;;;5013364;28;20049;-73
2023/01/08 10:53:02;;;;;;;0.00;0.00;;;4.60;99.90;;;;;;5013263;28;20124;-73
2023/01/08 10:55:37;;;;;;;0.00;0.00;;;4.60;99.90;;;;;;5024905;28;20022;-73
2023/01/08 10:58:14;;;;;;;0.00;0.00;;;4.60;99.90;;;;;;5023133;28;20470;-73
2023/01/08 11:00:40;;;;;;;0.00;0.00;;;4.60;99.90;;;;;;5014104;28;20569;-73
2023/01/08 11:03:22;;;;;;;0.00;0.00;;;4.60;99.90;;;;;;5038302;28;20024;-73
2023/01/08 11:05:50;;;;;;;0.00;0.00;;;4.70;99.90;;;;;;5021283;28;20704;-73
2023/01/08 11:08:19;;;;;;;0.00;0.00;;;4.60;99.90;;;;;;5021922;28;20025;-73
2023/01/08 11:10:58;;;;;;;0.00;0.00;;;4.70;99.90;;;;;;5037428;28;20044;-73
2023/01/08 11:13:25;;;;;;;0.00;0.00;;;4.80;99.90;;;;;;5025681;28;20493;-73
2023/01/08 11:16:05;;;;;;;0.00;0.00;;;4.80;99.90;;;;;;5006570;28;20017;-73
2023/01/08 11:18:48;;;;;;;0.00;0.00;;;4.90;99.90;;;;;;5016443;28;20485;-73
2023/01/08 11:21:32;;;;;;;0.17;0.17;;;5.00;99.90;;;;;;5019825;28;20033;-73
2023/01/08 11:24:21;;;;;;;0.00;0.00;;;5.00;99.90;;;;;;5020801;28;20045;-73
2023/01/08 11:27:00;;;;;;;0.00;0.00;;;4.80;99.90;;;;;;5019873;28;20067;-73
2023/01/08 11:29:30;;;;;;;0.17;0.17;;;4.80;99.90;;;;;;5020501;28;20035;-73
2023/01/08 11:32:39;;;;;;;0.00;0.00;;;4.70;99.90;;;;;;5017644;28;20096;-73
2023/01/08 11:35:28;;;;;;;0.00;0.00;;;4.80;99.90;;;;;;5010086;28;20024;-73
2023/01/08 11:38:00;;;;;;;0.00;0.00;;;4.80;99.90;;;;;;5015175;28;20491;-73
2023/01/08 11:40:46;;;;;;;0.35;0.35;;;4.80;99.90;;;;;;5018018;28;20105;-73
2023/01/08 11:43:43;;;;;;;0.10;0.10;;;4.80;99.90;;;;;;5017818;28;20018;-73
2023/01/08 11:46:50;;;;;;;0.00;0.00;;;4.80;99.90;;;;;;5022396;28;21712;-73
2023/01/08 11:49:42;;;;;;;0.00;0.00;;;4.70;99.90;;;;;;5020190;28;20490;-73
2023/01/08 11:52:44;;;;;;;0.00;0.00;;;4.70;99.90;;;;;;5039552;28;20834;-73
2023/01/08 11:55:29;;;;;;;0.00;0.00;;;4.70;99.90;;;;;;5041040;28;20036;-73
2023/01/08 11:58:23;;;;;;;0.00;0.00;;;4.70;99.90;;;;;;5022361;28;20048;-73
2023/01/08 12:01:14;;;;;;;0.00;0.00;;;4.70;99.90;;;;;;5031481;28;20701;-73
2023/01/08 12:04:15;;;;;;;0.00;0.00;;;4.70;99.90;;;;;;5014377;28;20535;-73
2023/01/08 12:06:50;;;;;;;0.00;0.00;;;4.70;99.90;;;;;;5021130;28;20038;-73
2023/01/08 12:09:37;;;;;;;0.10;0.10;;;4.70;99.90;;;;;;5023413;28;20033;-73
2023/01/08 12:12:13;;;;;;;0.00;0.00;;;4.70;99.90;;;;;;5018995;28;20482;-73
2023/01/08 12:14:55;;;;;;;0.00;0.00;;;4.70;99.90;;;;;;5012818;28;20029;-73
2023/01/08 12:17:46;;;;;;;0.10;0.10;;;4.80;99.90;;;;;;5025640;28;20467;-73
2023/01/08 12:20:38;;;;;;;0.00;0.00;;;4.80;99.90;;;;;;5020399;28;20502;-73
2023/01/08 12:23:25;;;;;;;0.20;0.20;;;4.90;99.90;;;;;;5020831;28;20028;-73
2023/01/08 12:26:03;;;;;;;0.00;0.00;;;4.90;99.90;;;;;;5021336;28;20546;-73
2023/01/08 12:28:48;;;;;;;0.00;0.00;;;5.00;99.90;;;;;;5017007;28;20675;-73
2023/01/08 12:31:32;;;;;;;0.00;0.00;;;5.00;99.90;;;;;;5019171;28;20049;-73
2023/01/08 12:34:10;;;;;;;0.00;0.00;;;5.00;99.90;;;;;;5018537;28;20036;-73
2023/01/08 12:36:44;;;;;;;0.00;0.00;;;5.00;99.90;;;;;;5016241;28;20033;-73
2023/01/08 12:39:27;;;;;;;0.00;0.00;;;4.90;99.90;;;;;;5022705;28;20087;-73
2023/01/08 12:42:07;;;;;;;0.00;0.00;;;4.90;99.90;;;;;;5013675;28;20518;-73
2023/01/08 12:44:36;;;;;;;0.00;0.00;;;5.00;99.90;;;;;;5024861;28;20025;-73
2023/01/08 12:47:05;;;;;;;0.00;0.00;;;5.10;99.90;;;;;;5024510;28;20021;-73
2023/01/08 12:49:43;;;;;;;0.00;0.00;;;5.00;99.90;;;;;;5018855;28;20352;-73
2023/01/08 12:52:27;;;;;;;0.00;0.00;;;5.00;99.90;;;;;;5014325;28;20511;-73
2023/01/08 12:55:00;;;;;;;0.00;0.00;;;5.10;99.90;;;;;;5020277;28;20032;-73
2023/01/08 12:57:32;;;;;;;0.15;0.15;;;5.00;99.90;;;;;;5012175;28;20024;-73
2023/01/08 13:00:04;;;;;;;0.43;0.20;;;5.00;99.90;;;;;;5034982;28;20022;-73
2023/01/08 13:02:43;;;;;;;0.00;0.00;;;5.10;99.90;;;;;;5032718;28;20109;-73
2023/01/08 13:05:21;;;;;;;0.00;0.00;;;5.10;99.90;;;;;;5017917;28;20033;-73
2023/01/08 13:07:53;;;;;;;0.00;0.00;;;5.20;99.90;;;;;;5013147;28;20095;-73
2023/01/08 13:10:35;;;;;;;0.00;0.00;;;5.30;99.90;;;;;;5014061;28;20045;-73
2023/01/08 13:13:01;;;;;;;0.00;0.00;;;5.30;99.90;;;;;;5013646;28;20037;-73
2023/01/08 13:15:32;;;;;;;0.10;0.10;;;5.30;99.90;;;;;;5024495;28;20029;-72
2023/01/08 13:18:15;;;;;;;0.00;0.00;;;5.40;99.90;;;;;;5018296;28;20032;-73
2023/01/08 13:20:42;;;;;;;0.00;0.00;;;5.30;99.90;;;;;;5019761;28;20126;-73
2023/01/08 13:23:24;;;;;;;0.13;0.10;;;5.30;99.90;;;;;;5019700;28;20147;-74
2023/01/08 13:25:56;;;;;;;0.00;0.00;;;5.20;99.90;;;;;;5021517;28;20087;-73
2023/01/08 13:28:28;;;;;;;0.00;0.00;;;5.20;99.90;;;;;;5026572;28;20032;-73